createdAt,value
2023-02-19T00:01:50.313Z,1.00
2023-02-19T00:04:21.934Z,1.00
2023-02-19T00:06:50.706Z,0.65
2023-02-19T00:09:20.327Z,2.63
2023-02-19T00:11:48.829Z,1.10
2023-02-19T00:14:18.845Z,1.13
2023-02-19T00:16:47.149Z,1.00
2023-02-19T00:19:16.592Z,1.00
2023-02-19T00:21:46.181Z,1.20
2023-02-19T00:24:15.807Z,1.08
2023-02-19T00:26:45.651Z,0.98
2023-02-19T00:29:15.633Z,0.90
2023-02-19T00:31:44.559Z,1.00
2023-02-19T00:34:13.375Z,1.10
2023-02-19T00:36:42.350Z,1.25
2023-02-19T00:39:15.579Z,1.10
2023-02-19T00:41:44.365Z,1.48
2023-02-19T00:44:13.318Z,1.05
2023-02-19T00:46:43.430Z,0.85
2023-02-19T00:49:17.428Z,1.25
2023-02-19T00:51:45.931Z,2.05
2023-02-19T00:54:15.714Z,1.10
2023-02-19T00:56:43.989Z,1.13
2023-02-19T00:59:12.598Z,1.25
2023-02-19T01:01:40.864Z,1.30
2023-02-19T01:04:09.155Z,0.77
2023-02-19T01:06:37.728Z,1.02
2023-02-19T01:09:07.134Z,0.80
2023-02-19T01:11:36.992Z,1.02
2023-02-19T01:14:05.276Z,0.80
2023-02-19T01:16:33.547Z,0.90
2023-02-19T01:19:01.924Z,1.05
2023-02-19T01:21:31.505Z,0.98
2023-02-19T01:24:00.370Z,1.10
2023-02-19T01:26:30.211Z,1.17
2023-02-19T01:29:00.394Z,1.23
2023-02-19T01:31:29.153Z,1.00
2023-02-19T01:33:59.259Z,1.45
2023-02-19T01:36:28.360Z,1.48
2023-02-19T01:38:57.032Z,1.50
2023-02-19T01:41:26.224Z,1.30
2023-02-19T01:44:01.407Z,1.45
2023-02-19T01:46:30.879Z,1.30
2023-02-19T01:49:00.669Z,1.08
2023-02-19T01:51:29.078Z,1.53
2023-02-19T01:53:59.370Z,1.20
2023-02-19T01:56:28.257Z,1.20
2023-02-19T01:58:56.629Z,1.23
2023-02-19T02:01:26.248Z,1.35
2023-02-19T02:03:54.740Z,1.40
2023-02-19T02:06:24.742Z,1.10
2023-02-19T02:09:12.663Z,1.60
2023-02-19T02:11:43.029Z,1.38
2023-02-19T02:14:11.325Z,1.00
2023-02-19T02:16:45.457Z,1.20
2023-02-19T02:19:28.078Z,1.52
2023-02-19T02:22:02.793Z,1.02
2023-02-19T02:24:50.044Z,1.13
2023-02-19T02:27:33.724Z,1.00
2023-02-19T02:30:21.873Z,1.45
2023-02-19T02:32:56.235Z,1.13
2023-02-19T02:35:27.847Z,1.55
2023-02-19T02:37:58.417Z,1.20
2023-02-19T02:42:58.105Z,1.23
2023-02-19T02:45:36.868Z,1.38
2023-02-19T02:48:11.774Z,1.40
2023-02-19T02:50:43.897Z,1.42
2023-02-19T02:53:33.076Z,1.38
2023-02-19T02:56:01.569Z,1.60
2023-02-19T02:58:30.698Z,1.67
2023-02-19T03:01:21.770Z,1.70
2023-02-19T03:03:52.676Z,1.10
2023-02-19T03:06:23.174Z,1.70
2023-02-19T03:08:55.370Z,1.17
2023-02-19T03:11:41.313Z,1.23
2023-02-19T03:14:31.185Z,1.35
2023-02-19T03:17:21.888Z,1.53
2023-02-19T03:19:52.161Z,1.63
2023-02-19T03:22:24.446Z,1.52
2023-02-19T03:25:13.577Z,1.27
2023-02-19T03:27:44.448Z,1.63
2023-02-19T03:30:17.269Z,1.70
2023-02-19T03:32:49.479Z,1.60
2023-02-19T03:35:20.652Z,1.40
2023-02-19T03:37:53.397Z,1.50
2023-02-19T03:40:22.432Z,1.40
2023-02-19T03:42:57.936Z,1.90
2023-02-19T03:45:39.342Z,1.13
2023-02-19T03:48:24.265Z,1.50
2023-02-19T03:51:00.113Z,1.67
2023-02-19T03:53:31.439Z,1.67
2023-02-19T03:56:07.346Z,1.50
2023-02-19T03:58:41.672Z,1.90
2023-02-19T04:01:12.196Z,1.45
2023-02-19T04:06:15.358Z,1.58
2023-02-19T04:08:47.595Z,1.60
2023-02-19T04:11:17.090Z,1.60
2023-02-19T04:13:48.052Z,1.63
2023-02-19T04:16:19.597Z,1.40
2023-02-19T04:18:51.289Z,1.52
2023-02-19T04:21:20.560Z,1.60
2023-02-19T04:23:49.075Z,1.75
2023-02-19T04:26:18.595Z,1.48
2023-02-19T04:28:47.903Z,1.42
2023-02-19T04:31:16.220Z,1.77
2023-02-19T04:33:44.562Z,1.65
2023-02-19T04:36:14.110Z,1.50
2023-02-19T04:38:42.371Z,1.75
2023-02-19T04:41:10.972Z,1.05
2023-02-19T04:43:39.413Z,1.83
2023-02-19T04:46:07.717Z,1.55
2023-02-19T04:48:36.008Z,1.83
2023-02-19T04:51:07.127Z,1.92
2023-02-19T04:53:36.961Z,1.35
2023-02-19T04:56:09.111Z,1.60
2023-02-19T04:58:37.332Z,1.67
2023-02-19T05:01:05.825Z,1.80
2023-02-19T05:03:35.130Z,1.60
2023-02-19T05:06:04.160Z,1.85
2023-02-19T05:08:32.573Z,1.48
2023-02-19T05:11:03.143Z,1.20
2023-02-19T05:16:00.893Z,1.80
2023-02-19T05:18:29.517Z,1.60
2023-02-19T05:20:58.955Z,1.50
2023-02-19T05:23:28.417Z,1.50
2023-02-19T05:25:56.712Z,1.63
2023-02-19T05:28:28.864Z,1.42
2023-02-19T05:30:58.099Z,1.70
2023-02-19T05:33:27.068Z,1.23
2023-02-19T05:35:56.471Z,1.42
2023-02-19T05:38:25.525Z,1.42
2023-02-19T05:40:53.743Z,1.73
2023-02-19T05:43:21.991Z,1.45
2023-02-19T05:45:51.568Z,1.58
2023-02-19T05:48:19.855Z,1.70
2023-02-19T05:50:48.074Z,1.60
2023-02-19T05:53:16.405Z,1.70
2023-02-19T05:55:44.860Z,1.40
2023-02-19T05:58:13.053Z,1.48
2023-02-19T06:00:41.277Z,1.50
2023-02-19T06:03:10.850Z,1.70
2023-02-19T06:05:39.347Z,1.50
2023-02-19T06:08:07.609Z,2.00
2023-02-19T06:10:37.208Z,1.40
2023-02-19T06:13:05.464Z,1.50
2023-02-19T06:15:33.712Z,1.33
2023-02-19T06:18:02.239Z,1.85
2023-02-19T06:20:32.943Z,1.77
2023-02-19T06:23:01.203Z,1.73
2023-02-19T06:25:29.438Z,1.80
2023-02-19T06:27:57.729Z,1.60
2023-02-19T06:30:26.041Z,1.50
2023-02-19T06:32:54.729Z,1.30
2023-02-19T06:35:23.214Z,2.30
2023-02-19T06:37:52.827Z,1.83
2023-02-19T06:40:21.032Z,1.77
2023-02-19T06:42:49.287Z,1.63
2023-02-19T06:45:17.526Z,1.85
2023-02-19T06:47:45.762Z,2.47
2023-02-19T06:50:14.077Z,1.85
2023-02-19T06:52:42.316Z,1.48
2023-02-19T06:55:11.954Z,1.67
2023-02-19T06:57:40.218Z,1.73
2023-02-19T07:00:10.116Z,1.60
2023-02-19T07:02:38.402Z,1.80
2023-02-19T07:05:07.209Z,1.38
2023-02-19T07:07:35.454Z,1.20
2023-02-19T07:10:03.829Z,2.17
2023-02-19T07:12:33.447Z,1.60
2023-02-19T07:15:01.691Z,1.40
2023-02-19T07:17:30.046Z,1.50
2023-02-19T07:19:58.358Z,1.42
2023-02-19T07:22:26.699Z,1.63
2023-02-19T07:24:54.921Z,2.10
2023-02-19T07:27:23.152Z,1.40
2023-02-19T07:29:52.762Z,2.00
2023-02-19T07:32:21.046Z,1.80
2023-02-19T07:34:49.276Z,1.88
2023-02-19T07:37:17.556Z,1.95
2023-02-19T07:39:45.779Z,2.30
2023-02-19T07:42:13.988Z,1.85
2023-02-19T07:44:42.250Z,1.75
2023-02-19T07:47:11.872Z,1.63
2023-02-19T07:49:40.130Z,1.80
2023-02-19T07:52:08.413Z,1.95
2023-02-19T07:54:36.673Z,1.98
2023-02-19T07:57:05.076Z,1.85
2023-02-19T07:59:33.350Z,2.63
2023-02-19T08:02:19.242Z,2.05
2023-02-19T08:04:49.695Z,2.65
2023-02-19T08:07:17.922Z,2.50
2023-02-19T08:10:06.167Z,2.28
2023-02-19T08:12:51.900Z,3.17
2023-02-19T08:15:22.351Z,2.35
2023-02-19T08:20:20.250Z,2.20
2023-02-19T08:22:48.570Z,1.92
2023-02-19T08:25:16.830Z,1.75
2023-02-19T08:27:46.008Z,2.17
2023-02-19T08:30:14.497Z,2.10
2023-02-19T08:32:42.884Z,1.92
2023-02-19T08:35:11.176Z,1.88
2023-02-19T08:37:40.948Z,2.08
2023-02-19T08:40:10.042Z,1.42
2023-02-19T08:42:38.403Z,1.63
2023-02-19T08:45:07.732Z,1.40
2023-02-19T08:47:36.691Z,0.90
2023-02-19T08:50:05.559Z,0.60
2023-02-19T08:52:34.053Z,0.40
2023-02-19T08:55:03.967Z,0.40
2023-02-19T08:57:32.427Z,0.30
2023-02-19T09:00:00.685Z,0.40
2023-02-19T09:02:29.228Z,0.40
2023-02-19T09:04:57.448Z,0.82
2023-02-19T09:07:25.751Z,0.50
2023-02-19T09:09:54.072Z,0.30
2023-02-19T09:12:23.882Z,0.30
2023-02-19T09:14:52.301Z,0.55
2023-02-19T09:17:20.620Z,0.38
2023-02-19T09:19:50.815Z,0.50
2023-02-19T09:22:19.258Z,0.60
2023-02-19T09:24:47.568Z,0.45
2023-02-19T09:27:16.736Z,0.43
2023-02-19T09:29:46.479Z,0.70
2023-02-19T09:32:16.221Z,0.80
2023-02-19T09:34:45.790Z,0.63
2023-02-19T09:37:14.090Z,0.75
2023-02-19T09:39:42.328Z,0.40
2023-02-19T09:42:15.330Z,0.90
2023-02-19T09:44:48.497Z,0.75
2023-02-19T09:47:19.226Z,0.80
2023-02-19T09:49:52.405Z,0.63
2023-02-19T09:52:27.346Z,0.70
2023-02-19T09:54:59.270Z,0.50
2023-02-19T09:57:30.126Z,0.40
2023-02-19T10:00:03.931Z,0.30
2023-02-19T10:02:32.737Z,0.50
2023-02-19T10:05:01.725Z,0.40
2023-02-19T10:07:36.395Z,0.28
2023-02-19T10:10:19.901Z,0.40
2023-02-19T10:12:51.095Z,0.30
2023-02-19T10:15:26.269Z,0.65
2023-02-19T10:17:54.707Z,0.40
2023-02-19T10:20:24.733Z,0.40
2023-02-19T10:22:59.034Z,0.43
2023-02-19T10:25:27.631Z,0.40
2023-02-19T10:27:56.016Z,0.50
2023-02-19T10:30:27.383Z,0.50
2023-02-19T10:33:01.230Z,0.35
2023-02-19T10:35:30.205Z,0.40
2023-02-19T10:37:58.822Z,0.47
2023-02-19T10:40:28.978Z,0.45
2023-02-19T10:42:58.914Z,0.50
2023-02-19T10:45:33.584Z,0.30
2023-02-19T10:48:02.286Z,0.50
2023-02-19T10:50:32.844Z,0.57
2023-02-19T10:53:01.964Z,0.50
2023-02-19T10:55:33.064Z,0.60
2023-02-19T10:58:23.847Z,0.68
2023-02-19T11:03:25.936Z,0.47
2023-02-19T11:06:01.194Z,0.40
2023-02-19T11:08:29.893Z,0.40
2023-02-19T11:10:58.168Z,0.40
2023-02-19T11:13:32.367Z,0.52
2023-02-19T11:16:02.196Z,0.25
2023-02-19T11:18:32.663Z,0.30
2023-02-19T11:21:03.126Z,0.30
2023-02-19T11:23:32.695Z,0.30
2023-02-19T11:26:02.930Z,0.38
2023-02-19T11:28:35.122Z,0.40
2023-02-19T11:31:24.832Z,0.40
2023-02-19T11:33:57.917Z,0.30
2023-02-19T11:36:30.662Z,0.20
2023-02-19T11:39:00.499Z,0.40
2023-02-19T11:41:44.668Z,0.43
2023-02-19T11:44:25.612Z,0.40
2023-02-19T11:47:13.028Z,0.40
2023-02-19T11:49:47.605Z,0.40
2023-02-19T11:52:27.996Z,0.30
2023-02-19T11:55:03.605Z,0.30
2023-02-19T11:57:40.363Z,0.47
2023-02-19T12:00:25.024Z,0.45
2023-02-19T12:03:18.534Z,0.40
2023-02-19T12:05:51.848Z,0.45
2023-02-19T12:08:39.719Z,0.50
2023-02-19T12:11:35.490Z,0.55
2023-02-19T12:14:15.854Z,0.40
2023-02-19T12:16:47.611Z,0.60
2023-02-19T12:19:29.361Z,0.40
2023-02-19T12:22:13.321Z,0.35
2023-02-19T12:24:58.962Z,0.50
2023-02-19T12:27:40.413Z,0.40
2023-02-19T12:30:34.646Z,0.60
2023-02-19T12:33:30.083Z,0.47
2023-02-19T12:36:06.458Z,0.50
2023-02-19T12:38:39.345Z,0.50
2023-02-19T12:41:21.334Z,0.50
2023-02-19T12:43:54.662Z,0.40
2023-02-19T12:46:28.250Z,0.45
2023-02-19T12:49:02.511Z,0.50
2023-02-19T12:51:38.528Z,0.50
2023-02-19T12:54:08.221Z,0.40
2023-02-19T12:56:40.899Z,0.50
2023-02-19T12:59:13.322Z,0.50
2023-02-19T13:01:52.176Z,0.60
2023-02-19T13:04:27.288Z,0.43
2023-02-19T13:07:00.042Z,0.60
2023-02-19T13:09:32.983Z,0.52
2023-02-19T13:12:04.751Z,0.40
2023-02-19T13:14:35.668Z,0.43
2023-02-19T13:17:09.759Z,0.20
2023-02-19T13:19:38.548Z,0.30
2023-02-19T13:22:37.286Z,1.00
2023-02-19T13:25:07.989Z,0.35
2023-02-19T13:30:27.526Z,0.57
2023-02-19T13:33:00.920Z,0.30
2023-02-19T13:35:52.062Z,0.50
2023-02-19T13:38:21.749Z,0.52
2023-02-19T13:40:55.561Z,0.57
2023-02-19T13:43:25.945Z,0.50
2023-02-19T13:45:57.470Z,0.60
2023-02-19T13:48:30.549Z,0.63
2023-02-19T13:51:36.401Z,0.43
2023-02-19T13:54:14.991Z,0.60
2023-02-19T13:56:43.352Z,0.50
2023-02-19T13:59:40.846Z,0.45
2023-02-19T14:02:16.746Z,0.60
2023-02-19T14:04:51.783Z,0.50
2023-02-19T14:07:35.978Z,0.47
2023-02-19T14:10:11.174Z,0.40
2023-02-19T14:12:39.518Z,0.52
2023-02-19T14:15:39.107Z,0.55
2023-02-19T14:18:40.783Z,0.50
2023-02-19T14:21:16.723Z,0.98
2023-02-19T14:23:46.477Z,1.23
2023-02-19T14:26:17.520Z,0.63
2023-02-19T14:28:46.685Z,0.70
2023-02-19T14:31:23.672Z,0.50
2023-02-19T14:33:53.819Z,0.50
2023-02-19T14:36:44.311Z,0.50
2023-02-19T14:39:15.858Z,0.40
2023-02-19T14:41:48.038Z,0.40
2023-02-19T14:44:19.396Z,0.52
2023-02-19T14:46:53.494Z,0.40
2023-02-19T14:49:26.538Z,0.70
2023-02-19T14:51:59.365Z,0.35
2023-02-19T14:54:37.346Z,0.47
2023-02-19T14:57:09.090Z,0.50
2023-02-19T14:59:37.454Z,0.60
2023-02-19T15:02:16.050Z,0.63
2023-02-19T15:04:44.671Z,0.57
2023-02-19T15:07:17.615Z,0.50
2023-02-19T15:09:48.663Z,0.70
2023-02-19T15:12:21.598Z,0.70
2023-02-19T15:14:51.443Z,0.50
2023-02-19T15:17:25.535Z,0.68
2023-02-19T15:19:54.464Z,0.60
2023-02-19T15:22:24.202Z,0.50
2023-02-19T15:24:52.573Z,0.60
2023-02-19T15:27:25.449Z,0.50
2023-02-19T15:29:54.305Z,0.50
2023-02-19T15:32:26.289Z,0.70
2023-02-19T15:34:56.490Z,0.30
2023-02-19T15:37:25.599Z,0.95
2023-02-19T15:39:54.466Z,0.80
2023-02-19T15:42:25.745Z,0.60
2023-02-19T15:44:57.062Z,0.90
2023-02-19T15:47:33.243Z,0.50
2023-02-19T15:50:06.993Z,0.60
2023-02-19T15:52:41.944Z,0.60
2023-02-19T15:55:20.953Z,0.55
2023-02-19T15:57:55.061Z,0.60
2023-02-19T16:00:29.991Z,0.60
2023-02-19T16:02:59.067Z,0.57
2023-02-19T16:05:29.009Z,0.73
2023-02-19T16:08:07.838Z,0.65
2023-02-19T16:10:36.129Z,0.70
2023-02-19T16:13:08.133Z,0.80
2023-02-19T16:15:36.844Z,0.70
2023-02-19T16:18:06.002Z,0.93
2023-02-19T16:20:35.990Z,0.70
2023-02-19T16:23:05.902Z,0.60
2023-02-19T16:25:42.121Z,0.68
2023-02-19T16:28:13.623Z,0.50
2023-02-19T16:30:42.816Z,0.98
2023-02-19T16:33:34.803Z,0.60
2023-02-19T16:36:21.011Z,0.40
2023-02-19T16:39:23.391Z,0.70
2023-02-19T16:42:19.329Z,0.70
2023-02-19T16:44:49.241Z,0.65
2023-02-19T16:47:48.206Z,0.55
2023-02-19T16:50:18.423Z,0.70
2023-02-19T16:52:53.344Z,0.70
2023-02-19T16:55:21.581Z,0.88
2023-02-19T16:57:50.297Z,0.90
2023-02-19T17:00:22.087Z,0.73
2023-02-19T17:02:52.141Z,0.77
2023-02-19T17:05:21.573Z,0.60
2023-02-19T17:07:49.927Z,0.68
2023-02-19T17:10:18.897Z,0.68
2023-02-19T17:12:47.206Z,0.85
2023-02-19T17:15:15.563Z,0.70
2023-02-19T17:17:45.410Z,0.70
2023-02-19T17:20:23.289Z,1.02
2023-02-19T17:22:52.242Z,1.15
2023-02-19T17:25:20.514Z,0.77
2023-02-19T17:27:48.833Z,0.65
2023-02-19T17:30:21.665Z,1.00
2023-02-19T17:32:51.267Z,1.10
2023-02-19T17:35:19.509Z,0.80
2023-02-19T17:37:47.745Z,1.02
2023-02-19T17:40:32.313Z,0.90
2023-02-19T17:43:01.954Z,0.75
2023-02-19T17:45:30.211Z,1.08
2023-02-19T17:48:01.344Z,0.93
2023-02-19T17:50:31.152Z,0.88
2023-02-19T17:52:59.818Z,1.05
2023-02-19T17:55:28.157Z,0.65
2023-02-19T17:57:56.435Z,0.93
2023-02-19T18:00:26.565Z,1.00
2023-02-19T18:02:55.158Z,1.20
2023-02-19T18:05:25.360Z,0.90
2023-02-19T18:07:53.685Z,0.60
2023-02-19T18:10:23.493Z,1.08
2023-02-19T18:12:51.931Z,1.10
2023-02-19T18:15:21.986Z,1.00
2023-02-19T18:17:50.354Z,1.00
2023-02-19T18:20:20.506Z,0.95
2023-02-19T18:22:50.270Z,0.77
2023-02-19T18:25:19.119Z,1.08
2023-02-19T18:27:47.786Z,1.20
2023-02-19T18:30:18.955Z,1.20
2023-02-19T18:32:48.529Z,1.40
2023-02-19T18:35:18.006Z,1.20
2023-02-19T18:37:46.545Z,0.90
2023-02-19T18:40:16.365Z,1.05
2023-02-19T18:42:44.618Z,0.93
2023-02-19T18:45:12.959Z,1.25
2023-02-19T18:47:41.205Z,0.90
2023-02-19T18:50:10.853Z,0.80
2023-02-19T18:52:39.103Z,0.93
2023-02-19T18:55:08.419Z,1.17
2023-02-19T18:57:38.159Z,1.10
2023-02-19T19:00:08.189Z,1.10
2023-02-19T19:02:48.633Z,1.15
2023-02-19T19:05:21.321Z,0.95
2023-02-19T19:07:49.887Z,1.10
2023-02-19T19:10:18.645Z,1.20
2023-02-19T19:12:48.708Z,1.10
2023-02-19T19:15:18.343Z,1.13
2023-02-19T19:17:47.148Z,1.10
2023-02-19T19:20:15.643Z,1.55
2023-02-19T19:22:43.895Z,1.50
2023-02-19T19:25:12.196Z,1.02
2023-02-19T19:27:40.429Z,1.48
2023-02-19T19:30:10.803Z,1.42
2023-02-19T19:32:39.177Z,1.23
2023-02-19T19:35:07.816Z,1.13
2023-02-19T19:37:36.103Z,1.35
2023-02-19T19:40:04.997Z,1.40
2023-02-19T19:42:33.281Z,1.40
2023-02-19T19:45:01.648Z,1.20
2023-02-19T19:47:31.325Z,1.63
2023-02-19T19:49:59.605Z,1.40
2023-02-19T19:52:27.893Z,1.05
2023-02-19T19:54:56.146Z,0.93
2023-02-19T19:57:24.470Z,1.23
2023-02-19T19:59:52.794Z,1.13
2023-02-19T20:02:21.130Z,1.02
2023-02-19T20:04:50.787Z,0.98
2023-02-19T20:07:19.074Z,1.20
2023-02-19T20:09:50.648Z,0.82
2023-02-19T20:12:19.030Z,1.10
2023-02-19T20:14:47.851Z,0.90
2023-02-19T20:17:16.417Z,0.98
2023-02-19T20:19:46.592Z,1.05
2023-02-19T20:22:16.186Z,0.70
2023-02-19T20:24:44.470Z,1.15
2023-02-19T20:27:12.666Z,1.05
2023-02-19T20:29:40.884Z,1.00
2023-02-19T20:32:09.155Z,1.00
2023-02-19T20:34:38.143Z,1.10
2023-02-19T20:37:06.538Z,0.98
2023-02-19T20:39:37.474Z,1.02
2023-02-19T20:42:06.476Z,1.38
2023-02-19T20:44:34.773Z,0.98
2023-02-19T20:47:03.046Z,1.05
2023-02-19T20:49:32.517Z,1.48
2023-02-19T20:52:02.247Z,1.10
2023-02-19T20:54:31.715Z,1.20
2023-02-19T20:57:03.498Z,1.48
2023-02-19T20:59:35.310Z,1.30
2023-02-19T21:02:07.336Z,0.90
2023-02-19T21:04:38.640Z,1.13
2023-02-19T21:07:06.926Z,1.25
2023-02-19T21:09:35.235Z,0.95
2023-02-19T21:12:05.272Z,1.27
2023-02-19T21:14:33.559Z,1.00
2023-02-19T21:17:01.918Z,1.30
2023-02-19T21:19:30.257Z,1.15
2023-02-19T21:21:58.621Z,1.30
2023-02-19T21:24:26.925Z,1.13
2023-02-19T21:26:55.255Z,1.48
2023-02-19T21:29:25.332Z,1.30
2023-02-19T21:31:55.466Z,0.90
2023-02-19T21:34:25.869Z,1.08
2023-02-19T21:36:54.299Z,1.27
2023-02-19T21:39:24.857Z,1.10
2023-02-19T21:41:53.100Z,1.38
2023-02-19T21:44:22.110Z,1.00
2023-02-19T21:46:51.736Z,1.45
2023-02-19T21:49:20.136Z,1.23
2023-02-19T21:51:50.258Z,1.38
2023-02-19T21:54:21.097Z,1.10
2023-02-19T21:56:49.638Z,1.42
2023-02-19T21:59:17.905Z,1.70
2023-02-19T22:01:46.384Z,1.23
2023-02-19T22:04:17.614Z,1.30
2023-02-19T22:06:45.956Z,1.40
2023-02-19T22:09:15.168Z,1.52
2023-02-19T22:11:43.445Z,1.08
2023-02-19T22:14:11.716Z,1.45
2023-02-19T22:16:39.984Z,1.45
2023-02-19T22:19:08.285Z,1.20
2023-02-19T22:21:43.338Z,1.42
2023-02-19T22:24:16.814Z,1.50
2023-02-19T22:26:45.684Z,1.30
2023-02-19T22:29:15.663Z,1.13
2023-02-19T22:31:44.190Z,1.25
2023-02-19T22:34:12.520Z,1.25
2023-02-19T22:36:42.295Z,1.65
2023-02-19T22:39:19.570Z,0.97
2023-02-19T22:41:48.204Z,1.27
2023-02-19T22:44:16.537Z,1.35
2023-02-19T22:46:48.401Z,1.30
2023-02-19T22:49:17.348Z,1.00
2023-02-19T22:51:51.355Z,1.20
2023-02-19T22:54:21.804Z,1.38
2023-02-19T22:56:50.163Z,1.08
2023-02-19T22:59:18.520Z,1.23
2023-02-19T23:01:46.886Z,1.25
2023-02-19T23:04:15.206Z,0.98
2023-02-19T23:06:44.691Z,1.10
2023-02-19T23:09:18.196Z,1.33
2023-02-19T23:11:46.742Z,1.40
2023-02-19T23:14:17.312Z,1.63
2023-02-19T23:19:15.176Z,0.90
2023-02-19T23:21:45.676Z,1.20
2023-02-19T23:24:16.234Z,1.45
2023-02-19T23:26:45.102Z,1.40
2023-02-19T23:29:16.301Z,1.45
2023-02-19T23:31:44.719Z,1.52
2023-02-19T23:34:13.124Z,1.52
2023-02-19T23:36:42.220Z,1.27
2023-02-19T23:39:12.015Z,1.60
2023-02-19T23:41:47.174Z,1.55
2023-02-19T23:44:15.616Z,1.40
2023-02-19T23:46:44.122Z,1.40
2023-02-19T23:49:12.827Z,1.40
2023-02-19T23:51:41.257Z,1.30
2023-02-19T23:54:09.822Z,1.40
2023-02-19T23:56:38.117Z,1.40
2023-02-19T23:59:07.793Z,1.20
